Time;durP1;ratioP1;P1;durP2;ratioP2;P2;SDS_P1;SDS_P2;PMS_P1;PMS_P2;Temp;Humidity;BMP_temperature;BMP_pressure;BME280_temperature;BME280_humidity;BME280_pressure;Samples;Min_cycle;Max_cycle;Signal;HPM_P1;HPM_P2
2023/10/23 00:02:09;;;;;;;3.33;1.70;;;;;;;13.44;51.39;100910.66;5004236;28;20335;-72
2023/10/23 00:04:36;;;;;;;3.15;1.70;;;;;;;13.43;51.98;100905.28;4989408;28;20129;-71
2023/10/23 00:07:05;;;;;;;2.95;1.52;;;;;;;13.41;51.40;100910.94;4991452;28;20413;-71
2023/10/23 00:09:33;;;;;;;3.17;1.63;;;;;;;13.40;51.91;100914.69;5017290;28;20030;-71
2023/10/23 00:12:01;;;;;;;3.47;2.00;;;;;;;13.39;51.91;100903.84;4997101;28;20042;-71
2023/10/23 00:14:30;;;;;;;3.58;1.70;;;;;;;13.38;51.84;100904.88;4979615;28;20129;-72
2023/10/23 00:16:59;;;;;;;3.90;1.67;;;;;;;13.37;51.79;100901.25;4978822;28;20073;-71
2023/10/23 00:19:27;;;;;;;3.28;1.83;;;;;;;13.34;51.58;100903.44;5010759;28;20076;-72
2023/10/23 00:21:55;;;;;;;3.05;1.80;;;;;;;13.32;52.09;100911.84;5009739;28;20050;-72
2023/10/23 00:24:23;;;;;;;3.20;1.95;;;;;;;13.30;52.00;100902.00;5008557;28;20394;-73
2023/10/23 00:26:51;;;;;;;3.10;1.88;;;;;;;13.28;51.68;100907.69;5013698;28;20100;-72
2023/10/23 00:29:19;;;;;;;3.60;1.98;;;;;;;13.26;51.87;100906.94;4995042;28;20141;-71
2023/10/23 00:31:47;;;;;;;3.55;1.85;;;;;;;13.23;52.09;100905.38;5005568;28;20577;-72
2023/10/23 00:34:16;;;;;;;3.95;1.90;;;;;;;13.24;52.08;100908.97;5006288;28;20115;-72
2023/10/23 00:36:44;;;;;;;3.50;1.85;;;;;;;13.22;51.80;100913.75;4980561;28;20041;-72
2023/10/23 00:39:14;;;;;;;3.88;1.88;;;;;;;13.21;51.77;100914.75;4990918;28;20132;-72
2023/10/23 00:41:42;;;;;;;4.40;2.17;;;;;;;13.19;52.23;100914.94;5008892;28;20042;-72
2023/10/23 00:44:10;;;;;;;4.00;1.77;;;;;;;13.20;51.75;100918.56;4996065;28;20445;-72
2023/10/23 00:46:38;;;;;;;4.22;2.00;;;;;;;13.18;51.48;100921.44;4988525;28;20128;-72
2023/10/23 00:49:07;;;;;;;4.78;1.95;;;;;;;13.17;51.99;100921.59;5017227;28;20100;-72
2023/10/23 00:51:36;;;;;;;3.38;1.83;;;;;;;13.17;51.72;100922.47;5007344;28;20033;-72
2023/10/23 00:54:07;;;;;;;5.35;1.90;;;;;;;13.14;51.54;100922.75;4991505;28;20306;-72
2023/10/23 00:56:35;;;;;;;3.75;1.90;;;;;;;13.11;52.03;100925.81;4987194;28;20038;-72
2023/10/23 00:59:03;;;;;;;3.63;1.70;;;;;;;13.10;52.10;100923.22;4994897;28;20046;-72
2023/10/23 01:01:33;;;;;;;3.17;1.80;;;;;;;13.11;51.80;100930.44;5015238;28;20137;-71
2023/10/23 01:04:04;;;;;;;4.70;2.22;;;;;;;13.08;52.15;100926.09;4980644;28;20625;-72
2023/10/23 01:06:32;;;;;;;3.35;1.98;;;;;;;13.06;51.49;100925.38;5003147;28;20114;-72
2023/10/23 01:09:02;;;;;;;3.22;1.80;;;;;;;13.06;51.67;100930.88;5003255;28;20137;-72
2023/10/23 01:11:30;;;;;;;2.83;1.75;;;;;;;13.03;52.05;100928.44;4993475;28;20046;-72
2023/10/23 01:13:58;;;;;;;3.28;2.03;;;;;;;13.02;51.89;100925.84;4975104;28;20038;-72
2023/10/23 01:16:26;;;;;;;3.33;2.03;;;;;;;13.00;51.81;100925.97;4982916;28;20064;-72
2023/10/23 01:18:54;;;;;;;3.17;1.85;;;;;;;12.98;51.38;100919.75;5006423;28;20117;-72
2023/10/23 01:21:22;;;;;;;2.80;1.70;;;;;;;12.97;51.86;100920.78;4984239;28;21249;-72
2023/10/23 01:23:52;;;;;;;4.10;1.83;;;;;;;12.95;51.24;100914.59;4981036;28;20050;-72
2023/10/23 01:26:22;;;;;;;3.95;1.92;;;;;;;12.94;51.25;100920.22;4983079;28;20146;-71
2023/10/23 01:28:51;;;;;;;3.22;1.90;;;;;;;12.90;51.05;100916.88;5018376;28;20045;-72
2023/10/23 01:31:18;;;;;;;3.97;1.75;;;;;;;12.87;51.52;100920.78;5008275;28;20067;-72
2023/10/23 01:33:46;;;;;;;2.83;1.70;;;;;;;12.85;51.14;100913.72;5000724;28;20045;-72
2023/10/23 01:36:14;;;;;;;3.92;1.85;;;;;;;12.82;51.15;100911.28;4994415;28;20096;-71
2023/10/23 01:38:43;;;;;;;3.90;2.00;;;;;;;12.82;51.32;100914.88;4991229;28;20041;-72
2023/10/23 01:41:11;;;;;;;4.28;1.77;;;;;;;12.80;51.79;100910.53;4980454;28;20457;-72
2023/10/23 01:43:41;;;;;;;3.67;1.90;;;;;;;12.79;51.82;100915.16;5001703;28;20052;-72
2023/10/23 01:46:08;;;;;;;3.15;1.98;;;;;;;12.76;51.42;100912.72;5001152;28;20050;-71
2023/10/23 01:48:37;;;;;;;3.20;1.85;;;;;;;12.75;51.26;100912.88;4989404;28;20148;-72
2023/10/23 01:51:05;;;;;;;3.08;1.83;;;;;;;12.74;51.60;100916.63;5000397;28;20058;-72
2023/10/23 01:53:33;;;;;;;3.75;1.98;;;;;;;12.72;51.74;100916.78;4987691;28;20125;-72
2023/10/23 01:56:07;;;;;;;3.25;2.15;;;;;;;12.73;51.52;100924.00;4997925;28;20062;-71
2023/10/23 01:58:35;;;;;;;3.72;1.90;;;;;;;12.69;51.72;100919.84;5006677;28;20038;-72
2023/10/23 02:01:04;;;;;;;3.13;1.90;;;;;;;12.71;51.31;100928.78;5002796;28;20050;-72
2023/10/23 02:03:33;;;;;;;3.17;1.90;;;;;;;12.68;51.65;100925.47;5004612;28;20510;-72
2023/10/23 02:06:01;;;;;;;3.33;1.77;;;;;;;12.66;51.58;100931.09;4999201;28;20409;-72
2023/10/23 02:08:29;;;;;;;4.63;1.77;;;;;;;12.66;51.16;100928.34;5001228;28;20057;-72
2023/10/23 02:10:57;;;;;;;5.05;2.00;;;;;;;12.64;51.07;100927.63;4988641;28;20049;-73
2023/10/23 02:13:25;;;;;;;3.17;1.90;;;;;;;12.64;51.41;100926.75;5001601;28;20367;-73
2023/10/23 02:15:52;;;;;;;4.00;2.00;;;;;;;12.62;51.45;100931.56;4993302;28;20132;-73
2023/10/23 02:18:22;;;;;;;3.67;2.03;;;;;;;12.63;51.43;100941.50;4986087;28;20066;-72
2023/10/23 02:20:50;;;;;;;6.10;2.00;;;;;;;12.60;51.34;100941.78;5000096;28;20054;-72
2023/10/23 02:23:18;;;;;;;3.78;1.98;;;;;;;12.59;50.91;100937.28;4975728;28;20049;-72
2023/10/23 02:25:46;;;;;;;3.50;2.20;;;;;;;12.56;51.30;100938.44;5001533;28;20449;-72
2023/10/23 02:28:16;;;;;;;4.35;2.15;;;;;;;12.56;51.42;100943.06;5006044;28;20054;-72
2023/10/23 02:30:44;;;;;;;3.20;1.80;;;;;;;12.54;51.32;100937.75;5008953;28;20081;-72
2023/10/23 02:33:12;;;;;;;2.88;1.90;;;;;;;12.53;50.86;100937.88;5007028;28;20104;-72
2023/10/23 02:35:41;;;;;;;3.92;2.00;;;;;;;12.53;50.78;100929.66;4994216;28;20629;-73
2023/10/23 02:38:09;;;;;;;4.00;1.88;;;;;;;12.49;50.88;100935.41;5009130;28;20076;-72
2023/10/23 02:40:37;;;;;;;4.82;1.70;;;;;;;12.46;51.11;100932.06;5013252;28;20051;-72
2023/10/23 02:43:05;;;;;;;4.05;2.00;;;;;;;12.45;50.92;100931.25;5011916;28;20137;-72
2023/10/23 02:45:34;;;;;;;3.13;2.00;;;;;;;12.43;51.34;100935.13;4984180;28;20046;-72
2023/10/23 02:48:04;;;;;;;3.03;1.85;;;;;;;12.41;50.95;100940.75;4990724;28;20745;-73
2023/10/23 02:50:32;;;;;;;4.43;1.98;;;;;;;12.40;51.30;100938.16;4987990;28;20706;-73
2023/10/23 02:53:02;;;;;;;3.10;2.13;;;;;;;12.39;50.69;100941.91;5003897;28;20049;-72
2023/10/23 02:55:31;;;;;;;3.88;1.80;;;;;;;12.35;51.01;100941.34;5000859;28;20034;-72
2023/10/23 02:58:00;;;;;;;4.22;2.15;;;;;;;12.34;50.74;100946.97;4984955;28;20054;-71
2023/10/23 03:00:28;;;;;;;4.50;2.10;;;;;;;12.32;51.21;100946.25;4997934;28;20085;-73
2023/10/23 03:02:57;;;;;;;3.35;1.92;;;;;;;12.31;50.74;100944.50;5010359;28;20080;-72
2023/10/23 03:05:25;;;;;;;4.90;1.90;;;;;;;12.29;51.14;100941.94;5010123;28;20046;-72
2023/10/23 03:07:53;;;;;;;3.70;2.10;;;;;;;12.27;50.86;100937.59;5016002;28;20033;-72
2023/10/23 03:10:22;;;;;;;3.47;2.00;;;;;;;12.27;50.79;100941.19;4982159;28;20070;-72
2023/10/23 03:12:50;;;;;;;4.63;2.38;;;;;;;12.24;51.22;100937.84;4999619;28;20046;-72
2023/10/23 03:15:18;;;;;;;2.85;1.75;;;;;;;12.22;51.46;100937.13;4988324;28;20046;-72
2023/10/23 03:17:46;;;;;;;6.07;2.13;;;;;;;12.22;51.47;100939.88;5008191;28;20075;-73
2023/10/23 03:20:16;;;;;;;5.00;2.30;;;;;;;12.22;51.43;100943.47;5006354;28;20116;-72
2023/10/23 03:22:44;;;;;;;3.33;1.98;;;;;;;12.18;51.14;100933.81;4979883;28;20048;-72
2023/10/23 03:25:12;;;;;;;3.92;2.20;;;;;;;12.18;51.39;100949.41;5005826;28;20164;-73
2023/10/23 03:27:41;;;;;;;3.65;1.90;;;;;;;12.17;51.19;100944.94;4990606;28;20050;-72
2023/10/23 03:30:10;;;;;;;3.72;2.08;;;;;;;12.15;51.19;100941.47;5004152;28;20050;-72
2023/10/23 03:32:38;;;;;;;3.25;2.10;;;;;;;12.12;51.25;100942.63;4994105;28;20045;-72
2023/10/23 03:35:07;;;;;;;3.80;2.08;;;;;;;12.10;51.06;100945.50;5009626;28;20084;-72
2023/10/23 03:37:35;;;;;;;3.15;1.70;;;;;;;12.09;51.42;100952.00;5007873;28;20065;-72
2023/10/23 03:40:03;;;;;;;3.65;1.80;;;;;;;12.06;51.02;100948.66;5001687;28;20065;-72
2023/10/23 03:42:31;;;;;;;3.10;1.80;;;;;;;12.05;50.93;100955.16;5008594;28;20030;-72
2023/10/23 03:45:02;;;;;;;3.75;1.95;;;;;;;12.04;51.04;100959.81;4989735;28;20050;-71
2023/10/23 03:47:30;;;;;;;3.30;1.98;;;;;;;12.00;51.29;100950.09;5011100;28;20046;-72
2023/10/23 03:49:58;;;;;;;2.85;1.80;;;;;;;11.97;51.23;100944.88;5004867;28;20074;-72
2023/10/23 03:52:26;;;;;;;3.58;1.77;;;;;;;11.97;51.02;100944.88;5004377;28;20140;-72
2023/10/23 03:54:54;;;;;;;4.22;2.00;;;;;;;11.95;51.06;100946.06;5002003;28;20046;-72
2023/10/23 03:57:22;;;;;;;2.90;1.70;;;;;;;11.94;51.33;100963.53;4995569;28;20531;-72
2023/10/23 03:59:50;;;;;;;3.08;1.77;;;;;;;11.90;51.15;100951.94;4980596;28;20045;-72
2023/10/23 04:02:19;;;;;;;3.97;1.90;;;;;;;11.89;51.46;100955.69;5012779;28;20045;-72
2023/10/23 04:04:47;;;;;;;2.10;1.50;;;;;;;11.87;51.08;100974.19;5010198;28;20048;-72
2023/10/23 04:07:15;;;;;;;2.88;1.85;;;;;;;11.85;51.10;100978.94;4996451;28;20133;-72
2023/10/23 04:09:42;;;;;;;3.25;2.00;;;;;;;11.84;51.19;100974.47;5010886;28;20466;-72
2023/10/23 04:12:10;;;;;;;4.30;1.80;;;;;;;11.83;51.14;100971.84;5002993;28;20097;-72
2023/10/23 04:14:38;;;;;;;3.35;1.80;;;;;;;11.82;51.61;100970.13;4974156;28;20046;-72
2023/10/23 04:17:06;;;;;;;3.45;1.90;;;;;;;11.80;51.67;100970.25;5008613;28;20092;-72
2023/10/23 04:19:36;;;;;;;4.22;2.00;;;;;;;11.82;51.68;100967.38;5015027;28;20046;-72
2023/10/23 04:22:04;;;;;;;4.97;2.42;;;;;;;11.78;51.55;100958.56;5010179;28;20034;-72
2023/10/23 04:24:32;;;;;;;3.30;2.00;;;;;;;11.78;51.22;100964.06;4990185;28;20045;-72
2023/10/23 04:27:00;;;;;;;3.97;2.03;;;;;;;11.78;51.38;100968.69;4998834;28;20054;-72
2023/10/23 04:29:28;;;;;;;4.43;1.90;;;;;;;11.77;51.57;100972.41;5000938;28;20064;-72
2023/10/23 04:31:56;;;;;;;2.97;1.73;;;;;;;11.76;51.10;100974.28;5003933;28;20844;-72
2023/10/23 04:34:24;;;;;;;4.47;2.13;;;;;;;11.76;51.30;100973.44;5011374;28;20555;-72
2023/10/23 04:36:53;;;;;;;2.95;1.88;;;;;;;11.78;51.29;100966.81;5009780;28;20041;-72
2023/10/23 04:39:21;;;;;;;3.95;2.25;;;;;;;11.77;51.53;100962.31;4984387;28;20464;-72
2023/10/23 04:41:49;;;;;;;3.90;2.35;;;;;;;11.75;51.32;100975.28;5010578;28;20041;-73
2023/10/23 04:44:17;;;;;;;4.10;1.90;;;;;;;11.76;51.12;100979.78;5010770;28;20072;-73
2023/10/23 04:46:47;;;;;;;5.25;2.28;;;;;;;11.74;51.46;100977.16;4987074;28;20044;-73
2023/10/23 04:49:15;;;;;;;5.13;2.15;;;;;;;11.73;50.98;100966.34;4989319;28;20049;-72
2023/10/23 04:51:43;;;;;;;4.30;2.30;;;;;;;11.72;51.29;100965.47;5010491;28;20108;-73
2023/10/23 04:54:13;;;;;;;4.05;2.47;;;;;;;11.72;51.38;100967.34;5021450;28;20041;-73
2023/10/23 04:56:42;;;;;;;3.80;2.10;;;;;;;11.68;51.39;100965.91;5018993;28;20411;-73
2023/10/23 04:59:10;;;;;;;3.90;2.28;;;;;;;11.66;50.79;100965.16;5007433;28;20188;-73
2023/10/23 05:01:38;;;;;;;3.40;1.98;;;;;;;11.64;51.20;100970.78;5015778;28;20132;-73
2023/10/23 05:04:06;;;;;;;3.97;2.17;;;;;;;11.63;51.26;100966.31;5025127;28;20103;-72
2023/10/23 05:06:34;;;;;;;4.43;2.05;;;;;;;11.61;51.01;100961.97;4999072;28;20045;-72
2023/10/23 05:09:04;;;;;;;4.13;2.17;;;;;;;11.61;51.34;100972.94;5002801;28;20064;-73
2023/10/23 05:11:34;;;;;;;3.65;1.80;;;;;;;11.60;50.93;100968.44;5006961;28;20081;-73
2023/10/23 05:14:02;;;;;;;3.70;1.88;;;;;;;11.58;50.95;100964.94;5010634;28;20144;-72
2023/10/23 05:16:30;;;;;;;3.45;1.90;;;;;;;11.58;51.61;100959.47;4992663;28;20049;-72
2023/10/23 05:18:58;;;;;;;3.42;2.17;;;;;;;11.56;51.28;100959.59;5010825;28;20046;-73
2023/10/23 05:21:26;;;;;;;2.83;1.75;;;;;;;11.56;51.37;100965.09;4992516;28;20140;-73
2023/10/23 05:23:54;;;;;;;3.88;2.10;;;;;;;11.56;51.12;100961.47;5016257;28;20070;-73
2023/10/23 05:26:22;;;;;;;4.05;2.17;;;;;;;11.54;51.50;100958.03;4999085;28;20066;-72
2023/10/23 05:28:53;;;;;;;5.68;2.55;;;;;;;11.57;51.43;100957.72;5029482;28;20048;-72
2023/10/23 05:31:21;;;;;;;3.30;1.90;;;;;;;11.54;51.21;100955.28;5021184;28;20125;-73
2023/10/23 05:33:49;;;;;;;3.05;1.90;;;;;;;11.52;51.26;100944.47;4996168;28;20515;-73
2023/10/23 05:36:17;;;;;;;4.32;2.30;;;;;;;11.51;51.16;100950.94;4997127;28;20069;-73
2023/10/23 05:38:45;;;;;;;3.85;2.10;;;;;;;11.50;51.34;100946.47;4998188;28;20756;-73
2023/10/23 05:41:14;;;;;;;4.63;2.30;;;;;;;11.50;51.50;100957.44;5013899;28;20056;-74
2023/10/23 05:43:43;;;;;;;3.10;1.90;;;;;;;11.51;51.68;100947.34;5010701;28;20599;-66
2023/10/23 05:46:13;;;;;;;3.30;1.83;;;;;;;11.52;51.20;100960.03;5010957;28;20512;-62
2023/10/23 05:48:41;;;;;;;3.80;2.10;;;;;;;11.51;51.67;100955.56;5017158;28;20128;-62
2023/10/23 05:51:09;;;;;;;3.67;1.85;;;;;;;11.51;51.59;100961.91;5013176;28;20046;-67
2023/10/23 05:53:37;;;;;;;3.85;2.00;;;;;;;11.53;51.67;100965.38;5014748;28;20034;-60
2023/10/23 05:56:06;;;;;;;4.22;2.05;;;;;;;11.54;51.91;100963.50;5015207;28;20470;-62
2023/10/23 05:58:35;;;;;;;4.45;2.10;;;;;;;11.55;51.32;100968.00;5019425;28;20490;-72
2023/10/23 06:01:06;;;;;;;3.85;1.98;;;;;;;11.56;51.06;100976.06;5011806;28;20049;-72
2023/10/23 06:03:36;;;;;;;4.78;2.17;;;;;;;11.57;51.45;100968.69;4995680;28;20340;-73
2023/10/23 06:06:05;;;;;;;3.45;2.00;;;;;;;11.55;51.57;100971.59;5013081;28;20125;-72
2023/10/23 06:08:33;;;;;;;3.85;2.00;;;;;;;11.54;50.95;100972.59;5011129;28;20386;-72
2023/10/23 06:11:01;;;;;;;5.13;1.98;;;;;;;11.54;51.07;100969.88;4987855;28;20038;-72
2023/10/23 06:13:30;;;;;;;4.55;1.92;;;;;;;11.53;50.86;100970.00;4991543;28;20560;-73
2023/10/23 06:16:02;;;;;;;4.63;1.92;;;;;;;11.54;50.85;100971.72;5009822;28;20069;-73
2023/10/23 06:18:31;;;;;;;4.28;2.03;;;;;;;11.51;51.19;100970.13;5009235;28;20081;-72
2023/10/23 06:21:03;;;;;;;2.78;1.92;;;;;;;11.52;51.05;100968.25;5009819;28;20046;-73
2023/10/23 06:23:32;;;;;;;5.07;2.33;;;;;;;11.49;51.04;100974.00;5009370;28;20042;-72
2023/10/23 06:26:00;;;;;;;3.60;1.95;;;;;;;11.49;50.87;100966.66;4991413;28;20069;-72
2023/10/23 06:28:28;;;;;;;2.65;1.75;;;;;;;11.49;51.15;100969.38;4991088;28;20054;-72
2023/10/23 06:30:56;;;;;;;4.03;2.00;;;;;;;11.48;50.92;100964.91;4997539;28;20085;-71
2023/10/23 06:33:24;;;;;;;2.92;1.83;;;;;;;11.48;50.97;100964.91;4972082;28;20283;-73
2023/10/23 06:35:58;;;;;;;6.07;2.53;;;;;;;11.51;51.52;100969.25;4989595;28;20042;-73
2023/10/23 06:38:28;;;;;;;5.05;2.00;;;;;;;11.49;51.54;100966.66;4989126;28;20545;-73
2023/10/23 06:40:56;;;;;;;3.85;2.20;;;;;;;11.48;51.42;100969.53;5006442;28;20046;-72
2023/10/23 06:43:24;;;;;;;5.03;1.95;;;;;;;11.47;51.08;100967.81;4991803;28;20060;-72
2023/10/23 06:45:52;;;;;;;4.95;2.00;;;;;;;11.47;51.10;100971.38;4991937;28;20140;-72
2023/10/23 06:48:23;;;;;;;4.20;2.10;;;;;;;11.46;50.98;100972.44;4991173;28;20068;-72
2023/10/23 06:50:51;;;;;;;4.22;2.00;;;;;;;11.47;51.39;100985.09;4991152;28;20042;-72
2023/10/23 06:53:19;;;;;;;4.20;2.10;;;;;;;11.48;51.51;100980.47;5005239;28;20422;-72
2023/10/23 06:55:49;;;;;;;3.50;1.90;;;;;;;11.51;51.08;100985.69;4975958;28;20042;-72
2023/10/23 06:58:18;;;;;;;3.40;1.83;;;;;;;11.49;51.10;100983.09;5007328;28;20062;-73
2023/10/23 07:00:46;;;;;;;4.47;2.00;;;;;;;11.50;51.12;100978.47;4978864;28;20494;-72
2023/10/23 07:03:15;;;;;;;3.78;2.17;;;;;;;11.50;51.66;100976.59;5002502;28;20093;-72
2023/10/23 07:05:43;;;;;;;3.90;2.15;;;;;;;11.51;51.00;100977.47;4984300;28;20048;-73
2023/10/23 07:08:12;;;;;;;3.35;2.00;;;;;;;11.51;51.36;100977.47;5005842;28;20067;-73
2023/10/23 07:10:40;;;;;;;2.83;1.77;;;;;;;11.52;51.63;100973.75;4989038;28;20042;-72
2023/10/23 07:13:09;;;;;;;4.97;2.60;;;;;;;11.54;51.91;100983.56;4991288;28;20046;-73
2023/10/23 07:15:49;;;;;;;5.10;2.03;;;;;;;11.53;51.51;100984.56;4993130;28;20054;-72
2023/10/23 07:18:18;;;;;;;3.67;2.13;;;;;;;11.56;51.43;100977.91;4992334;28;20525;-73
2023/10/23 07:20:55;;;;;;;3.47;1.90;;;;;;;11.60;51.51;100976.66;4975091;28;20132;-72
2023/10/23 07:23:23;;;;;;;3.10;1.70;;;;;;;11.58;51.71;100981.41;4975120;28;20047;-72
2023/10/23 07:26:03;;;;;;;3.38;1.88;;;;;;;11.62;51.45;100986.53;4975483;28;20088;-73
2023/10/23 07:28:33;;;;;;;4.80;2.45;;;;;;;11.61;51.36;100978.44;4992422;28;20050;-72
2023/10/23 07:31:03;;;;;;;4.28;2.50;;;;;;;11.63;51.34;100992.88;4990460;28;20034;-72
2023/10/23 07:33:31;;;;;;;5.65;2.30;;;;;;;11.60;51.16;100988.50;4994161;28;20058;-72
2023/10/23 07:36:01;;;;;;;4.53;2.30;;;;;;;11.61;51.45;100986.66;4993941;28;20046;-73
2023/10/23 07:38:29;;;;;;;4.20;2.42;;;;;;;11.60;51.08;100987.63;5021341;28;20404;-73
2023/10/23 07:40:57;;;;;;;4.75;2.40;;;;;;;11.59;51.20;100984.00;5032105;28;20535;-72
2023/10/23 07:43:26;;;;;;;4.63;2.38;;;;;;;11.59;51.01;100981.28;5013912;28;20107;-72
2023/10/23 07:45:56;;;;;;;3.65;1.98;;;;;;;11.61;51.56;100986.66;5021098;28;20042;-70
2023/10/23 07:48:42;;;;;;;4.97;2.50;;;;;;;11.56;51.65;100980.66;5007579;28;20104;-71
2023/10/23 07:51:10;;;;;;;4.82;2.13;;;;;;;11.59;51.70;100985.88;5008249;28;20529;-71
2023/10/23 07:53:38;;;;;;;4.20;2.20;;;;;;;11.59;51.63;100985.88;5001602;28;20400;-71
2023/10/23 07:56:06;;;;;;;5.05;2.50;;;;;;;11.58;51.71;100982.28;4992600;28;20446;-71
2023/10/23 07:58:34;;;;;;;4.57;3.03;;;;;;;11.58;51.64;100984.13;4991929;28;20062;-71
2023/10/23 08:01:05;;;;;;;4.68;2.67;;;;;;;11.61;51.97;100968.34;4986381;28;20084;-71
2023/10/23 08:03:34;;;;;;;4.57;2.63;;;;;;;11.60;51.70;100969.31;5011352;28;20042;-71
2023/10/23 08:08:44;;;;;;;4.65;2.60;;;;;;;11.63;52.08;100970.94;5048119;28;20457;-71
2023/10/23 08:11:13;;;;;;;5.55;2.80;;;;;;;11.65;52.26;100971.66;5051240;28;20045;-70
2023/10/23 08:13:42;;;;;;;4.07;2.47;;;;;;;11.66;51.86;100973.38;5033129;28;20297;-71
2023/10/23 08:16:11;;;;;;;4.53;2.60;;;;;;;11.68;52.49;100972.25;5071391;28;20036;-72
2023/10/23 08:18:41;;;;;;;4.18;2.35;;;;;;;11.69;52.50;100960.28;5071685;28;20059;-71
2023/10/23 08:21:11;;;;;;;3.50;2.33;;;;;;;11.72;52.16;100964.59;5053563;28;20055;-71
2023/10/23 08:23:39;;;;;;;4.40;2.38;;;;;;;11.74;52.42;100963.47;5070990;28;20110;-70
2023/10/23 08:26:08;;;;;;;3.40;2.25;;;;;;;11.74;51.92;100963.47;5071203;28;20115;-71
2023/10/23 08:28:36;;;;;;;2.90;1.83;;;;;;;11.77;52.11;100956.84;5068632;28;20119;-71
2023/10/23 08:31:07;;;;;;;4.10;2.10;;;;;;;11.80;52.48;100952.97;5051384;28;20037;-70
2023/10/23 08:33:49;;;;;;;4.20;2.28;;;;;;;11.81;52.34;100957.41;5033232;28;20079;-71
2023/10/23 08:36:17;;;;;;;2.67;1.70;;;;;;;11.82;52.29;100960.00;5026456;28;20571;-73
2023/10/23 08:38:45;;;;;;;4.53;2.20;;;;;;;11.86;52.25;100963.34;5024741;28;20532;-73
2023/10/23 08:41:13;;;;;;;2.83;1.80;;;;;;;11.88;52.03;100961.34;5024119;28;20056;-73
2023/10/23 08:43:41;;;;;;;4.25;2.20;;;;;;;11.89;52.16;100966.66;5025269;28;20433;-73
2023/10/23 08:46:10;;;;;;;3.53;2.20;;;;;;;11.90;52.83;100960.19;5008617;28;20155;-73
2023/10/23 08:48:38;;;;;;;3.90;2.05;;;;;;;11.94;52.42;100958.03;5006862;28;20049;-74
2023/10/23 08:51:08;;;;;;;2.88;1.83;;;;;;;11.97;52.12;100953.13;5009087;28;20099;-73
2023/10/23 08:53:46;;;;;;;3.38;1.90;;;;;;;12.01;52.67;100948.22;5026742;28;20044;-74
2023/10/23 08:56:37;;;;;;;4.22;2.10;;;;;;;12.02;52.89;100942.59;5027562;28;20045;-75
2023/10/23 08:59:06;;;;;;;3.83;2.03;;;;;;;12.06;52.27;100945.91;5025498;28;20068;-74
2023/10/23 09:01:35;;;;;;;4.15;2.20;;;;;;;12.08;52.64;100942.03;5008906;28;20052;-74
2023/10/23 09:04:05;;;;;;;3.85;1.95;;;;;;;12.11;52.21;100950.00;5026784;28;20683;-75
2023/10/23 09:06:36;;;;;;;3.15;1.90;;;;;;;12.15;52.11;100939.59;5026256;28;20512;-74
2023/10/23 09:09:06;;;;;;;2.97;1.77;;;;;;;12.18;52.42;100936.56;5024593;28;20488;-74
2023/10/23 09:11:43;;;;;;;4.28;2.33;;;;;;;12.24;52.21;100929.63;5028222;28;20049;-75
2023/10/23 09:14:12;;;;;;;3.50;1.70;;;;;;;12.24;52.75;100924.13;5010524;28;20048;-74
2023/10/23 09:16:40;;;;;;;3.22;1.65;;;;;;;12.26;52.67;100931.22;5026857;28;20085;-75
2023/10/23 09:19:08;;;;;;;3.08;1.80;;;;;;;12.28;52.22;100937.44;5026667;28;20056;-74
2023/10/23 09:21:38;;;;;;;3.00;1.90;;;;;;;12.35;52.11;100938.59;5027139;28;20056;-74
2023/10/23 09:24:07;;;;;;;2.70;1.65;;;;;;;12.37;52.60;100939.34;5009336;28;20071;-75
2023/10/23 09:26:35;;;;;;;3.95;2.05;;;;;;;12.42;52.30;100941.63;5009396;28;20425;-75
2023/10/23 09:29:03;;;;;;;3.63;2.00;;;;;;;12.45;52.70;100928.50;5024518;28;20049;-75
2023/10/23 09:31:31;;;;;;;3.10;1.80;;;;;;;12.50;52.82;100933.53;5027648;28;20053;-75
2023/10/23 09:34:01;;;;;;;2.88;1.77;;;;;;;12.56;52.18;100932.94;5027652;28;20129;-74
2023/10/23 09:36:31;;;;;;;4.50;2.10;;;;;;;12.62;52.69;100939.78;5007144;28;20785;-74
2023/10/23 09:39:02;;;;;;;3.45;2.10;;;;;;;12.67;52.36;100931.97;5025270;28;20086;-75
2023/10/23 09:41:32;;;;;;;3.83;2.10;;;;;;;12.69;52.03;100927.19;5023294;28;20046;-75
2023/10/23 09:44:02;;;;;;;3.63;1.98;;;;;;;12.73;52.16;100931.38;5027135;28;20045;-75
2023/10/23 09:46:30;;;;;;;4.15;2.30;;;;;;;12.75;52.11;100927.47;5011019;28;20068;-74
2023/10/23 09:49:02;;;;;;;3.85;2.33;;;;;;;12.77;52.02;100919.97;5027421;28;20504;-75
2023/10/23 09:51:38;;;;;;;3.10;2.03;;;;;;;12.78;51.89;100918.97;5040293;28;20735;-75
2023/10/23 09:54:19;;;;;;;3.33;2.05;;;;;;;12.84;51.35;100922.97;5029101;28;20057;-74
2023/10/23 09:56:49;;;;;;;4.05;2.30;;;;;;;12.83;51.42;100919.38;5009133;28;20091;-75
2023/10/23 09:59:19;;;;;;;5.88;2.28;;;;;;;12.87;51.37;100914.47;5041043;28;20037;-74
2023/10/23 10:01:50;;;;;;;4.50;2.25;;;;;;;12.88;51.31;100911.53;5007499;28;20053;-75
2023/10/23 10:04:26;;;;;;;3.43;2.30;;;;;;;12.88;51.37;100911.53;5009792;28;20048;-75
2023/10/23 10:06:56;;;;;;;4.32;2.67;;;;;;;12.90;51.68;100902.28;5027805;28;20135;-75
2023/10/23 10:09:26;;;;;;;4.85;2.67;;;;;;;12.92;51.20;100905.75;5024874;28;20048;-74
2023/10/23 10:11:56;;;;;;;4.35;2.47;;;;;;;12.92;51.47;100903.00;5026782;28;20045;-66
2023/10/23 10:14:25;;;;;;;4.43;2.70;;;;;;;12.93;51.36;100907.50;5031731;28;20451;-74
2023/10/23 10:16:55;;;;;;;4.20;2.55;;;;;;;12.93;51.46;100900.13;5014807;28;20048;-74
2023/10/23 10:19:24;;;;;;;3.90;2.55;;;;;;;12.95;51.77;100898.09;5018354;28;20049;-74
2023/10/23 10:22:00;;;;;;;5.28;2.50;;;;;;;12.98;51.16;100896.91;5031622;28;20496;-74
2023/10/23 10:24:30;;;;;;;3.88;2.63;;;;;;;12.98;51.62;100891.41;5022613;28;20045;-74
2023/10/23 10:27:00;;;;;;;4.97;3.20;;;;;;;12.97;51.14;100882.31;5038003;28;20061;-75
2023/10/23 10:29:28;;;;;;;5.32;2.75;;;;;;;12.99;51.13;100895.91;5018547;28;20642;-74
2023/10/23 10:32:02;;;;;;;4.47;2.85;;;;;;;13.02;51.28;100892.88;5026426;28;20312;-73
2023/10/23 10:34:52;;;;;;;5.63;2.78;;;;;;;13.02;51.53;100890.13;5029643;28;20045;-73
2023/10/23 10:37:27;;;;;;;4.50;2.70;;;;;;;13.03;51.28;100889.09;5006055;28;20084;-74
2023/10/23 10:40:10;;;;;;;4.55;2.72;;;;;;;13.06;51.10;100884.16;5026066;28;20115;-74
2023/10/23 10:42:43;;;;;;;4.38;2.53;;;;;;;13.06;51.86;100875.91;5007638;28;20050;-74
2023/10/23 10:45:17;;;;;;;4.22;2.72;;;;;;;13.10;51.36;100873.75;5005239;28;20052;-76
2023/10/23 10:47:49;;;;;;;4.25;2.70;;;;;;;13.12;51.33;100869.81;5024152;28;20519;-75
2023/10/23 10:50:38;;;;;;;4.47;2.77;;;;;;;13.11;50.74;100862.63;5009258;28;20422;-75
2023/10/23 10:53:08;;;;;;;4.15;2.45;;;;;;;13.16;51.48;100859.41;5010022;28;20075;-75
2023/10/23 10:55:38;;;;;;;4.00;2.60;;;;;;;13.20;51.41;100858.09;5027621;28;20053;-75
2023/10/23 10:58:06;;;;;;;4.97;2.70;;;;;;;13.20;51.62;100855.34;5026528;28;20134;-77
2023/10/23 11:00:37;;;;;;;3.97;2.30;;;;;;;13.24;51.08;100859.50;5008498;28;20663;-75
2023/10/23 11:03:06;;;;;;;4.20;2.53;;;;;;;13.25;51.11;100848.38;5007854;28;20567;-76
2023/10/23 11:05:36;;;;;;;4.45;2.97;;;;;;;13.27;51.50;100844.59;5008164;28;20037;-75
2023/10/23 11:08:04;;;;;;;4.75;2.40;;;;;;;13.30;51.52;100830.53;5026506;28;20053;-76
2023/10/23 11:10:33;;;;;;;3.60;2.40;;;;;;;13.32;51.51;100839.50;5025381;28;20147;-76
2023/10/23 11:13:02;;;;;;;4.35;2.50;;;;;;;13.36;51.31;100832.69;5028734;28;20126;-76
2023/10/23 11:15:30;;;;;;;3.55;2.10;;;;;;;13.35;50.83;100837.34;5008358;28;20053;-74
2023/10/23 11:17:58;;;;;;;4.28;2.17;;;;;;;13.38;51.06;100827.88;5007537;28;20060;-75
2023/10/23 11:20:31;;;;;;;4.40;2.38;;;;;;;13.38;50.93;100834.25;5028702;28;20051;-75
2023/10/23 11:23:00;;;;;;;;;;;;;;;13.12;51.04;100835.97;5009503;28;20045;-75
2023/10/23 11:25:28;;;;;;;3.30;1.73;;;;;;;13.35;50.56;100819.97;5007918;28;19929;-74
2023/10/23 11:27:56;;;;;;;3.35;1.90;;;;;;;13.38;51.05;100828.75;5027128;28;20049;-75
2023/10/23 11:30:28;;;;;;;3.47;2.00;;;;;;;13.40;50.17;100817.63;5008095;28;20056;-74
2023/10/23 11:32:56;;;;;;;3.03;1.90;;;;;;;13.39;50.77;100827.75;5010284;28;20053;-76
2023/10/23 11:35:33;;;;;;;3.85;2.03;;;;;;;13.42;50.17;100815.59;5027164;28;20644;-76
2023/10/23 11:38:01;;;;;;;3.25;1.90;;;;;;;13.38;50.81;100806.75;5026298;28;20112;-75